Jonah, Texas
Current Conditions -  °F | °C
As of 7:50 PM on Saturday 25 Oct 2014 (Local Time) from KGTU Reporting Station
Clear Clear  
Wind Chill: 79°   Ceiling: Unl
Heat Index: 80°   Visibility: 10mi
Dew Point: 57°   Wind: 5mph
Humidity: 47%   Direction: NA
Pressure: 30.09"   Gusts: NA
Location:  30.6233°N, 97.6645°W
Report Text: KGTU 260050Z VRB04KT 10SM SKC 26/14 A3009
Loading
Personal Weather Stations






























Interactive Weather Map
Tropical Storm Tracking
New forecast layout! Learn more

10-Day Weather Forecast

Advertisements
Track Severe Weather on mobile